createdAt,value
2022-12-23T00:01:56.251Z,76.48
2022-12-23T00:04:26.749Z,77.21
2022-12-23T00:06:56.946Z,76.73
2022-12-23T00:09:27.140Z,76.67
2022-12-23T00:12:09.577Z,77.20
2022-12-23T00:14:54.812Z,76.72
2022-12-23T00:17:25.230Z,77.13
2022-12-23T00:19:55.556Z,76.85
2022-12-23T00:22:45.947Z,76.90
2022-12-23T00:25:16.778Z,77.26
2022-12-23T00:28:01.584Z,77.29
2022-12-23T00:30:34.564Z,77.13
2022-12-23T00:33:04.820Z,76.90
2022-12-23T00:35:35.222Z,77.24
2022-12-23T00:38:05.471Z,76.77
2022-12-23T00:40:48.546Z,76.85
2022-12-23T00:43:18.732Z,77.12
2022-12-23T00:45:51.701Z,77.31
2022-12-23T00:48:34.568Z,77.18
2022-12-23T00:51:04.970Z,77.35
2022-12-23T00:53:37.419Z,77.30
2022-12-23T00:56:08.710Z,77.10
2022-12-23T00:58:38.998Z,77.28
2022-12-23T01:01:24.333Z,77.36
2022-12-23T01:04:07.125Z,77.10
2022-12-23T01:06:40.382Z,77.61
2022-12-23T01:09:10.843Z,77.67
2022-12-23T01:11:43.885Z,77.15
2022-12-23T01:14:14.059Z,77.50
2022-12-23T01:16:48.156Z,77.51
2022-12-23T01:19:19.521Z,77.40
2022-12-23T01:21:49.864Z,77.32
2022-12-23T01:24:20.109Z,77.53
2022-12-23T01:26:50.318Z,77.52
2022-12-23T01:29:20.566Z,77.47
2022-12-23T01:31:53.431Z,77.24
2022-12-23T01:34:23.767Z,77.40
2022-12-23T01:36:53.955Z,77.17
2022-12-23T01:39:24.168Z,77.39
2022-12-23T01:42:06.866Z,77.37
2022-12-23T01:44:52.686Z,77.73
2022-12-23T01:47:41.834Z,77.50
2022-12-23T01:50:17.838Z,77.52
2022-12-23T01:52:53.287Z,77.79
2022-12-23T01:55:28.116Z,77.52
2022-12-23T01:58:03.521Z,77.59
2022-12-23T02:00:47.210Z,77.48
2022-12-23T02:03:32.398Z,77.29
2022-12-23T02:06:23.835Z,77.76
2022-12-23T02:09:07.621Z,77.79
2022-12-23T02:11:50.774Z,77.60
2022-12-23T02:14:48.638Z,77.52
2022-12-23T02:17:28.000Z,77.27
2022-12-23T02:20:42.618Z,77.38
2022-12-23T02:23:49.705Z,77.09
2022-12-23T02:26:50.720Z,77.30
2022-12-23T02:29:49.314Z,77.52
2022-12-23T02:32:27.787Z,77.33
2022-12-23T02:35:06.342Z,77.39
2022-12-23T02:37:41.859Z,77.25
2022-12-23T02:40:17.441Z,77.22
2022-12-23T02:42:52.077Z,77.63
2022-12-23T02:45:29.579Z,77.30
2022-12-23T02:48:08.422Z,77.52
2022-12-23T02:50:42.089Z,77.40
2022-12-23T02:53:17.885Z,77.78
2022-12-23T02:55:56.319Z,77.45
2022-12-23T02:58:31.185Z,77.39
2022-12-23T03:01:04.190Z,77.51
2022-12-23T03:03:38.500Z,77.74
2022-12-23T03:06:20.298Z,77.51
2022-12-23T03:08:52.468Z,77.62
2022-12-23T03:11:22.952Z,77.42
2022-12-23T03:14:09.002Z,77.53
2022-12-23T03:16:51.296Z,77.71
2022-12-23T03:19:35.350Z,77.79
2022-12-23T03:22:13.626Z,77.36
2022-12-23T03:24:50.403Z,77.46
2022-12-23T03:27:29.001Z,77.66
2022-12-23T03:30:06.835Z,77.83
2022-12-23T03:32:40.757Z,77.87
2022-12-23T03:35:17.375Z,77.80
2022-12-23T03:37:51.677Z,77.67
2022-12-23T03:40:28.041Z,77.70
2022-12-23T03:43:04.063Z,77.79
2022-12-23T03:45:40.722Z,77.51
2022-12-23T03:48:17.801Z,77.70
2022-12-23T03:50:55.677Z,77.33
2022-12-23T03:53:32.579Z,77.55
2022-12-23T03:56:08.876Z,77.33
2022-12-23T03:58:42.688Z,77.43
2022-12-23T04:01:20.014Z,77.72
2022-12-23T04:04:00.433Z,77.70
2022-12-23T04:06:39.026Z,77.44
2022-12-23T04:09:12.055Z,77.77
2022-12-23T04:11:45.025Z,77.71
2022-12-23T04:14:19.985Z,77.82
2022-12-23T04:16:53.055Z,77.54
2022-12-23T04:19:23.443Z,77.65
2022-12-23T04:21:58.719Z,77.49
2022-12-23T04:24:28.936Z,77.64
2022-12-23T04:26:59.065Z,77.69
2022-12-23T04:29:29.240Z,77.55
2022-12-23T04:31:59.520Z,77.59
2022-12-23T04:34:29.888Z,77.52
2022-12-23T04:37:02.969Z,77.37
2022-12-23T04:39:33.178Z,77.40
2022-12-23T04:42:03.367Z,77.63
2022-12-23T04:44:33.530Z,77.55
2022-12-23T04:47:03.894Z,77.67
2022-12-23T04:49:35.454Z,77.30
2022-12-23T04:52:08.541Z,77.57
2022-12-23T04:54:45.515Z,77.76
2022-12-23T04:57:16.596Z,77.61
2022-12-23T04:59:47.299Z,77.71
2022-12-23T05:02:17.561Z,78.10
2022-12-23T05:04:47.779Z,78.15
2022-12-23T05:07:20.635Z,77.77
2022-12-23T05:09:54.447Z,78.21
2022-12-23T05:12:24.570Z,77.84
2022-12-23T05:14:54.800Z,78.13
2022-12-23T05:17:25.143Z,77.80
2022-12-23T05:19:59.126Z,77.89
2022-12-23T05:22:31.916Z,77.64
2022-12-23T05:25:02.042Z,77.86
2022-12-23T05:27:32.276Z,77.47
2022-12-23T05:30:09.327Z,77.61
2022-12-23T05:32:44.740Z,77.01
2022-12-23T05:35:14.923Z,77.23
2022-12-23T05:37:47.814Z,76.81
2022-12-23T05:40:24.094Z,77.23
2022-12-23T05:43:00.007Z,77.83
2022-12-23T05:45:30.364Z,77.76
2022-12-23T05:48:03.514Z,77.63
2022-12-23T05:50:33.880Z,77.86
2022-12-23T05:53:06.843Z,77.99
2022-12-23T05:55:37.695Z,77.96
2022-12-23T05:58:08.021Z,78.33
2022-12-23T06:00:43.549Z,78.40
2022-12-23T06:03:14.074Z,78.17
2022-12-23T06:05:44.348Z,78.34
2022-12-23T06:08:17.087Z,78.27
2022-12-23T06:10:47.436Z,78.35
2022-12-23T06:13:17.770Z,78.24
2022-12-23T06:15:54.335Z,78.34
2022-12-23T06:18:24.551Z,78.71
2022-12-23T06:20:55.278Z,78.75
2022-12-23T06:23:28.031Z,78.55
2022-12-23T06:26:03.243Z,78.54
2022-12-23T06:28:34.518Z,78.57
2022-12-23T06:31:04.670Z,78.46
2022-12-23T06:33:34.888Z,78.60
2022-12-23T06:36:05.183Z,78.38
2022-12-23T06:38:38.051Z,78.35
2022-12-23T06:41:08.773Z,78.25
2022-12-23T06:43:38.945Z,78.17
2022-12-23T06:46:09.192Z,78.50
2022-12-23T06:48:42.276Z,78.33
2022-12-23T06:51:13.286Z,78.33
2022-12-23T06:53:46.209Z,78.30
2022-12-23T06:56:16.488Z,78.20
2022-12-23T06:58:47.176Z,78.50
2022-12-23T07:01:17.525Z,78.36
2022-12-23T07:03:50.262Z,78.35
2022-12-23T07:06:20.477Z,78.25
2022-12-23T07:08:53.634Z,78.07
2022-12-23T07:11:23.793Z,78.58
2022-12-23T07:13:54.152Z,78.39
2022-12-23T07:16:24.354Z,78.60
2022-12-23T07:18:54.675Z,78.62
2022-12-23T07:21:29.372Z,78.51
2022-12-23T07:24:02.693Z,78.37
2022-12-23T07:26:32.842Z,78.30
2022-12-23T07:29:04.403Z,78.46
2022-12-23T07:31:37.126Z,78.44
2022-12-23T07:34:11.220Z,78.16
2022-12-23T07:36:41.394Z,78.82
2022-12-23T07:39:14.272Z,78.73
2022-12-23T07:41:44.486Z,78.62
2022-12-23T07:44:14.750Z,78.66
2022-12-23T07:46:45.232Z,78.65
2022-12-23T07:49:15.590Z,78.81
2022-12-23T07:51:45.763Z,78.80
2022-12-23T07:54:18.637Z,78.33
2022-12-23T07:56:48.851Z,78.31
2022-12-23T07:59:19.274Z,78.30
2022-12-23T08:01:49.901Z,78.60
2022-12-23T08:04:20.727Z,78.49
2022-12-23T08:06:50.969Z,78.09
2022-12-23T08:09:24.104Z,78.20
2022-12-23T08:11:54.514Z,78.15
2022-12-23T08:14:24.653Z,78.07
2022-12-23T08:16:54.907Z,78.62
2022-12-23T08:19:25.114Z,78.40
2022-12-23T08:21:55.545Z,78.09
2022-12-23T08:24:28.328Z,77.97
2022-12-23T08:26:58.549Z,78.25
2022-12-23T08:29:35.781Z,78.17
2022-12-23T08:32:07.188Z,78.38
2022-12-23T08:34:37.843Z,78.03
2022-12-23T08:37:07.997Z,78.34
2022-12-23T08:39:42.422Z,78.35
2022-12-23T08:42:12.601Z,78.30
2022-12-23T08:44:42.958Z,78.54
2022-12-23T08:47:13.152Z,78.27
2022-12-23T08:49:47.060Z,78.32
2022-12-23T08:52:17.732Z,78.54
2022-12-23T08:54:51.204Z,78.34
2022-12-23T08:57:21.429Z,78.64
2022-12-23T08:59:51.929Z,78.44
2022-12-23T09:02:22.308Z,78.47
2022-12-23T09:04:52.705Z,78.54
2022-12-23T09:07:22.941Z,79.07
2022-12-23T09:09:58.610Z,79.46
2022-12-23T09:12:32.003Z,79.62
2022-12-23T09:15:02.404Z,78.99
2022-12-23T09:17:33.562Z,79.27
2022-12-23T09:20:05.188Z,79.24
2022-12-23T09:22:36.144Z,79.05
2022-12-23T09:25:10.135Z,78.77
2022-12-23T09:27:44.071Z,78.90
2022-12-23T09:30:15.845Z,78.37
2022-12-23T09:32:46.086Z,78.84
2022-12-23T09:35:16.416Z,79.45
2022-12-23T09:37:46.675Z,79.85
2022-12-23T09:40:22.593Z,80.05
2022-12-23T09:43:01.953Z,80.20
2022-12-23T09:45:47.411Z,79.65
2022-12-23T09:48:22.379Z,79.24
2022-12-23T09:50:52.592Z,79.41
2022-12-23T09:53:24.710Z,79.38
2022-12-23T09:56:05.189Z,79.64
2022-12-23T09:58:45.845Z,79.45
2022-12-23T10:01:22.452Z,79.55
2022-12-23T10:04:26.686Z,79.48
2022-12-23T10:07:06.617Z,79.24
2022-12-23T10:09:41.063Z,79.24
2022-12-23T10:12:27.755Z,79.04
2022-12-23T10:15:04.411Z,78.31
2022-12-23T10:17:40.227Z,78.06
2022-12-23T10:20:21.046Z,78.04
2022-12-23T10:22:51.497Z,78.06
2022-12-23T10:25:31.275Z,78.00
2022-12-23T10:28:04.300Z,77.67
2022-12-23T10:31:05.624Z,77.68
2022-12-23T10:33:40.354Z,77.75
2022-12-23T10:36:15.836Z,77.62
2022-12-23T10:38:57.313Z,78.37
2022-12-23T10:41:40.910Z,77.94
2022-12-23T10:44:39.560Z,78.30
2022-12-23T10:47:18.587Z,78.54
2022-12-23T10:50:02.489Z,78.58
2022-12-23T10:52:37.484Z,78.96
2022-12-23T10:55:08.774Z,78.85
2022-12-23T10:57:39.187Z,79.23
2022-12-23T11:00:21.287Z,79.11
2022-12-23T11:03:04.680Z,78.57
2022-12-23T11:05:37.320Z,78.92
2022-12-23T11:08:08.400Z,78.49
2022-12-23T11:10:39.699Z,78.21
2022-12-23T11:13:10.046Z,78.18
2022-12-23T11:15:44.191Z,77.96
2022-12-23T11:18:21.202Z,78.16
2022-12-23T11:21:06.105Z,77.90
2022-12-23T11:23:38.831Z,78.25
2022-12-23T11:26:12.365Z,78.23
2022-12-23T11:28:50.485Z,78.22
2022-12-23T11:31:32.662Z,78.13
2022-12-23T11:34:07.775Z,78.70
2022-12-23T11:36:38.528Z,78.43
2022-12-23T11:39:27.271Z,78.65
2022-12-23T11:42:07.859Z,79.14
2022-12-23T11:44:44.387Z,79.63
2022-12-23T11:47:29.449Z,79.21
2022-12-23T11:50:03.167Z,79.75
2022-12-23T11:52:35.445Z,80.19
2022-12-23T11:55:09.256Z,80.28
2022-12-23T11:57:45.455Z,79.88
2022-12-23T12:00:23.642Z,79.97
2022-12-23T12:02:58.081Z,80.19
2022-12-23T12:05:34.375Z,80.39
2022-12-23T12:08:08.683Z,80.36
2022-12-23T12:10:42.418Z,80.45
2022-12-23T12:13:27.023Z,80.34
2022-12-23T12:16:06.624Z,80.37
2022-12-23T12:18:42.128Z,80.29
2022-12-23T12:21:17.263Z,80.05
2022-12-23T12:24:08.319Z,80.22
2022-12-23T12:26:43.600Z,80.29
2022-12-23T12:29:21.491Z,80.47
2022-12-23T12:31:54.293Z,80.50
2022-12-23T12:34:52.534Z,80.43
2022-12-23T12:37:31.356Z,80.41
2022-12-23T12:40:04.296Z,80.20
2022-12-23T12:42:40.698Z,80.26
2022-12-23T12:45:19.769Z,80.23
2022-12-23T12:48:13.082Z,80.35
2022-12-23T12:50:58.163Z,80.63
2022-12-23T12:53:31.134Z,80.16
2022-12-23T12:56:09.603Z,80.25
2022-12-23T12:58:40.679Z,80.06
2022-12-23T13:01:28.125Z,80.41
2022-12-23T13:04:28.968Z,80.75
2022-12-23T13:07:12.515Z,80.67
2022-12-23T13:09:57.336Z,80.48
2022-12-23T13:12:41.442Z,80.93
2022-12-23T13:15:23.252Z,80.63
2022-12-23T13:18:10.088Z,80.59
2022-12-23T13:20:47.464Z,80.65
2022-12-23T13:23:45.480Z,81.06
2022-12-23T13:26:30.072Z,81.05
2022-12-23T13:29:20.349Z,80.92
2022-12-23T13:31:58.042Z,80.92
2022-12-23T13:34:42.235Z,80.46
2022-12-23T13:37:31.821Z,80.59
2022-12-23T13:40:22.699Z,81.16
2022-12-23T13:42:58.699Z,80.80
2022-12-23T13:45:36.332Z,80.97
2022-12-23T13:48:24.680Z,80.84
2022-12-23T13:51:02.837Z,80.59
2022-12-23T13:53:50.258Z,80.77
2022-12-23T13:56:30.110Z,80.57
2022-12-23T13:59:01.018Z,81.14
2022-12-23T14:01:38.787Z,80.85
2022-12-23T14:04:39.562Z,81.26
2022-12-23T14:07:22.459Z,81.37
2022-12-23T14:09:56.160Z,80.99
2022-12-23T14:12:32.151Z,81.24
2022-12-23T14:15:35.420Z,80.97
2022-12-23T14:18:22.086Z,80.87
2022-12-23T14:21:05.161Z,81.29
2022-12-23T14:23:50.219Z,81.33
2022-12-23T14:26:36.181Z,80.87
2022-12-23T14:29:31.172Z,81.15
2022-12-23T14:32:01.846Z,80.93
2022-12-23T14:34:34.453Z,81.17
2022-12-23T14:37:36.212Z,80.92
2022-12-23T14:40:41.246Z,80.86
2022-12-23T14:43:34.100Z,81.11
2022-12-23T14:46:08.586Z,80.84
2022-12-23T14:49:38.473Z,80.78
2022-12-23T14:52:44.302Z,80.86
2022-12-23T14:55:45.367Z,81.15
2022-12-23T14:58:48.261Z,81.39
2022-12-23T15:01:24.487Z,81.25
2022-12-23T15:04:01.342Z,81.23
2022-12-23T15:06:38.341Z,81.12
2022-12-23T15:09:10.347Z,80.96
2022-12-23T15:11:43.740Z,81.18
2022-12-23T15:14:22.901Z,81.38
2022-12-23T15:16:55.884Z,81.05
2022-12-23T15:19:28.957Z,81.29
2022-12-23T15:22:22.272Z,81.39
2022-12-23T15:24:56.073Z,80.99
2022-12-23T15:27:28.750Z,81.23
2022-12-23T15:30:00.583Z,81.12
2022-12-23T15:32:33.661Z,81.38
2022-12-23T15:35:07.998Z,81.71
2022-12-23T15:37:38.393Z,81.60
2022-12-23T15:40:25.219Z,81.48
2022-12-23T15:42:55.964Z,81.04
2022-12-23T15:45:41.700Z,81.21
2022-12-23T15:48:27.104Z,81.16
2022-12-23T15:51:01.100Z,81.42
2022-12-23T15:53:34.305Z,80.91
2022-12-23T15:56:09.789Z,80.79
2022-12-23T15:58:45.381Z,81.26
2022-12-23T16:01:18.459Z,81.05
2022-12-23T16:03:57.608Z,80.75
2022-12-23T16:06:32.085Z,80.90
2022-12-23T16:09:04.109Z,81.24
2022-12-23T16:11:45.136Z,80.91
2022-12-23T16:14:36.351Z,81.22
2022-12-23T16:17:18.677Z,81.20
2022-12-23T16:19:53.727Z,81.21
2022-12-23T16:22:30.869Z,80.88
2022-12-23T16:25:13.566Z,81.23
2022-12-23T16:27:46.232Z,80.99
2022-12-23T16:30:20.278Z,81.00
2022-12-23T16:32:54.873Z,80.93
2022-12-23T16:35:40.272Z,80.86
2022-12-23T16:38:21.621Z,81.17
2022-12-23T16:40:53.696Z,81.28
2022-12-23T16:43:26.187Z,80.60
2022-12-23T16:45:59.300Z,81.20
2022-12-23T16:48:34.542Z,80.81
2022-12-23T16:51:14.471Z,81.27
2022-12-23T16:53:44.747Z,81.13
2022-12-23T16:56:15.849Z,80.75
2022-12-23T16:58:49.716Z,80.49
2022-12-23T17:01:25.016Z,80.76
2022-12-23T17:03:56.070Z,80.66
2022-12-23T17:06:29.720Z,80.67
2022-12-23T17:09:03.018Z,80.56
2022-12-23T17:11:40.790Z,80.88
2022-12-23T17:14:17.914Z,81.19
2022-12-23T17:16:48.927Z,80.92
2022-12-23T17:19:28.002Z,80.85
2022-12-23T17:22:05.875Z,81.16
2022-12-23T17:24:36.222Z,81.12
2022-12-23T17:27:16.059Z,80.63
2022-12-23T17:29:47.322Z,81.23
2022-12-23T17:32:21.481Z,80.96
2022-12-23T17:34:51.706Z,80.84
2022-12-23T17:37:25.978Z,80.78
2022-12-23T17:39:56.518Z,80.81
2022-12-23T17:42:27.005Z,80.68
2022-12-23T17:44:57.307Z,80.96
2022-12-23T17:47:27.752Z,80.82
2022-12-23T17:50:01.066Z,81.02
2022-12-23T17:52:33.986Z,80.82
2022-12-23T17:55:04.232Z,81.00
2022-12-23T17:57:34.503Z,81.17
2022-12-23T18:00:07.755Z,81.00
2022-12-23T18:02:38.372Z,81.22
2022-12-23T18:05:22.720Z,81.21
2022-12-23T18:07:56.593Z,80.95
2022-12-23T18:10:28.413Z,80.67
2022-12-23T18:13:04.797Z,80.69
2022-12-23T18:15:38.827Z,81.03
2022-12-23T18:18:27.307Z,81.15
2022-12-23T18:21:10.399Z,80.97
2022-12-23T18:23:43.300Z,80.98
2022-12-23T18:26:16.618Z,81.26
2022-12-23T18:28:47.357Z,81.08
2022-12-23T18:31:20.482Z,81.21
2022-12-23T18:33:51.166Z,80.82
2022-12-23T18:36:27.955Z,80.81
2022-12-23T18:39:00.935Z,80.52
2022-12-23T18:41:31.233Z,80.75
2022-12-23T18:44:01.509Z,81.06
2022-12-23T18:46:31.877Z,80.69
2022-12-23T18:49:02.307Z,80.54
2022-12-23T18:51:32.592Z,80.78
2022-12-23T18:54:05.500Z,80.70
2022-12-23T18:56:35.706Z,80.51
2022-12-23T18:59:06.047Z,80.11
2022-12-23T19:01:36.441Z,79.89
2022-12-23T19:04:06.824Z,80.52
2022-12-23T19:06:40.487Z,80.08
2022-12-23T19:09:18.581Z,80.28
2022-12-23T19:11:51.244Z,80.16
2022-12-23T19:14:21.439Z,80.20
2022-12-23T19:16:52.702Z,79.82
2022-12-23T19:19:24.072Z,80.57
2022-12-23T19:21:54.544Z,80.28
2022-12-23T19:24:27.458Z,80.27
2022-12-23T19:26:57.676Z,80.43
2022-12-23T19:29:27.944Z,79.71
2022-12-23T19:31:58.377Z,79.68
2022-12-23T19:34:28.682Z,79.80
2022-12-23T19:36:58.990Z,79.46
2022-12-23T19:39:34.463Z,79.83
2022-12-23T19:42:04.797Z,79.70
2022-12-23T19:44:35.115Z,80.05
2022-12-23T19:47:05.781Z,80.01
2022-12-23T19:49:37.172Z,80.08
2022-12-23T19:52:08.236Z,79.95
2022-12-23T19:54:41.032Z,79.66
2022-12-23T19:57:11.334Z,79.81
2022-12-23T19:59:41.580Z,80.11
2022-12-23T20:02:16.838Z,79.90
2022-12-23T20:04:47.379Z,80.05
2022-12-23T20:07:19.948Z,79.89
2022-12-23T20:09:54.258Z,79.52
2022-12-23T20:12:26.582Z,78.94
2022-12-23T20:14:59.530Z,79.15
2022-12-23T20:17:29.809Z,79.39
2022-12-23T20:20:01.287Z,79.51
2022-12-23T20:22:31.638Z,79.37
2022-12-23T20:25:04.489Z,79.22
2022-12-23T20:27:35.574Z,78.94
2022-12-23T20:30:13.631Z,79.27
2022-12-23T20:32:44.404Z,78.49
2022-12-23T20:35:14.661Z,78.77
2022-12-23T20:37:44.823Z,79.07
2022-12-23T20:40:19.431Z,79.02
2022-12-23T20:42:49.687Z,79.55
2022-12-23T20:45:21.506Z,79.28
2022-12-23T20:47:54.262Z,79.57
2022-12-23T20:50:27.134Z,79.52
2022-12-23T20:52:57.309Z,79.15
2022-12-23T20:55:30.295Z,78.93
2022-12-23T20:58:20.703Z,79.06
2022-12-23T21:00:51.253Z,79.04
2022-12-23T21:03:21.574Z,79.12
2022-12-23T21:05:51.783Z,79.56
2022-12-23T21:08:22.090Z,79.28
2022-12-23T21:10:58.543Z,80.20
2022-12-23T21:13:28.766Z,80.57
2022-12-23T21:16:03.727Z,80.12
2022-12-23T21:18:34.098Z,80.03
2022-12-23T21:21:05.812Z,79.74
2022-12-23T21:23:39.981Z,79.77
2022-12-23T21:26:15.675Z,80.22
2022-12-23T21:28:48.584Z,80.35
2022-12-23T21:31:21.733Z,80.77
2022-12-23T21:33:53.366Z,80.44
2022-12-23T21:36:25.129Z,80.39
2022-12-23T21:38:56.333Z,80.61
2022-12-23T21:41:31.374Z,80.85
2022-12-23T21:44:02.931Z,79.91
2022-12-23T21:46:33.268Z,79.72
2022-12-23T21:49:03.720Z,79.61
2022-12-23T21:51:40.197Z,79.34
2022-12-23T21:54:12.072Z,79.69
2022-12-23T21:56:44.822Z,79.64
2022-12-23T21:59:16.830Z,79.40
2022-12-23T22:01:47.183Z,79.11
2022-12-23T22:04:17.479Z,79.13
2022-12-23T22:06:48.518Z,79.42
2022-12-23T22:09:20.725Z,79.23
2022-12-23T22:11:53.628Z,78.84
2022-12-23T22:14:23.890Z,78.65
2022-12-23T22:16:54.207Z,78.92
2022-12-23T22:19:24.532Z,79.54
2022-12-23T22:21:54.892Z,79.63
2022-12-23T22:24:25.216Z,79.55
2022-12-23T22:26:57.986Z,79.33
2022-12-23T22:29:29.133Z,79.86
2022-12-23T22:31:59.489Z,79.50
2022-12-23T22:34:29.813Z,79.38
2022-12-23T22:37:00.146Z,79.78
2022-12-23T22:39:30.407Z,80.11
2022-12-23T22:42:03.280Z,80.11
2022-12-23T22:44:33.451Z,80.65
2022-12-23T22:47:03.779Z,80.09
2022-12-23T22:49:33.975Z,80.33
2022-12-23T22:52:04.231Z,80.21
2022-12-23T22:54:34.582Z,80.24
2022-12-23T22:57:07.578Z,80.34
2022-12-23T22:59:41.407Z,80.11
2022-12-23T23:02:11.745Z,80.63
2022-12-23T23:04:42.381Z,80.40
2022-12-23T23:07:12.659Z,80.46
2022-12-23T23:09:43.719Z,80.72
2022-12-23T23:12:16.875Z,80.80
2022-12-23T23:14:56.158Z,80.57
2022-12-23T23:17:28.440Z,80.22
2022-12-23T23:19:58.949Z,80.55
2022-12-23T23:22:29.290Z,80.36
2022-12-23T23:24:59.708Z,79.98
2022-12-23T23:27:32.496Z,80.40
2022-12-23T23:30:07.878Z,80.29
2022-12-23T23:32:38.460Z,80.21
2022-12-23T23:35:11.827Z,79.74
2022-12-23T23:37:42.168Z,80.12
2022-12-23T23:40:13.904Z,80.07
2022-12-23T23:42:46.862Z,79.73
2022-12-23T23:45:17.383Z,80.04
2022-12-23T23:47:47.663Z,79.62
2022-12-23T23:50:18.245Z,79.55
2022-12-23T23:52:48.663Z,80.05
2022-12-23T23:55:19.066Z,80.16
2022-12-23T23:57:51.809Z,80.20
